sensor_id;sensor_type;location;lat;lon;timestamp;pressure;altitude;pressure_sealevel;temperature;humidity
80699;BME280;70062;51.658;5.658;2023-07-24T00:00:37;100358.54;;;18.64;84.79
80699;BME280;70062;51.658;5.658;2023-07-24T00:03:04;100359.96;;;18.69;84.70
80699;BME280;70062;51.658;5.658;2023-07-24T00:05:30;100352.69;;;18.72;84.59
80699;BME280;70062;51.658;5.658;2023-07-24T00:07:55;100354.77;;;18.72;84.52
80699;BME280;70062;51.658;5.658;2023-07-24T00:10:20;100351.66;;;18.74;84.47
80699;BME280;70062;51.658;5.658;2023-07-24T00:12:46;100354.11;;;18.77;84.48
80699;BME280;70062;51.658;5.658;2023-07-24T00:15:11;100355.54;;;18.80;84.42
80699;BME280;70062;51.658;5.658;2023-07-24T00:17:37;100357.65;;;18.84;84.37
80699;BME280;70062;51.658;5.658;2023-07-24T00:20:02;100355.92;;;18.85;84.30
80699;BME280;70062;51.658;5.658;2023-07-24T00:22:27;100351.23;;;18.87;84.16
80699;BME280;70062;51.658;5.658;2023-07-24T00:24:53;100344.63;;;18.88;84.20
80699;BME280;70062;51.658;5.658;2023-07-24T00:27:18;100346.91;;;18.90;84.04
80699;BME280;70062;51.658;5.658;2023-07-24T00:29:44;100339.27;;;18.90;84.03
80699;BME280;70062;51.658;5.658;2023-07-24T00:32:09;100330.93;;;18.93;84.03
80699;BME280;70062;51.658;5.658;2023-07-24T00:34:34;100328.16;;;18.95;83.92
80699;BME280;70062;51.658;5.658;2023-07-24T00:37:00;100317.03;;;18.96;83.73
80699;BME280;70062;51.658;5.658;2023-07-24T00:39:25;100319.13;;;18.96;83.84
80699;BME280;70062;51.658;5.658;2023-07-24T00:41:53;100317.05;;;18.98;83.91
80699;BME280;70062;51.658;5.658;2023-07-24T00:44:19;100313.59;;;19.00;83.78
80699;BME280;70062;51.658;5.658;2023-07-24T00:46:44;100314.63;;;19.00;83.64
80699;BME280;70062;51.658;5.658;2023-07-24T00:49:10;100309.58;;;18.99;83.41
80699;BME280;70062;51.658;5.658;2023-07-24T00:51:35;100307.48;;;18.98;83.55
80699;BME280;70062;51.658;5.658;2023-07-24T00:54:02;100307.84;;;19.00;83.58
80699;BME280;70062;51.658;5.658;2023-07-24T00:56:30;100304.55;;;19.03;83.56
80699;BME280;70062;51.658;5.658;2023-07-24T00:58:56;100295.17;;;19.04;83.32
80699;BME280;70062;51.658;5.658;2023-07-24T01:01:22;100292.91;;;19.04;83.35
80699;BME280;70062;51.658;5.658;2023-07-24T01:03:48;100286.80;;;19.00;83.23
80699;BME280;70062;51.658;5.658;2023-07-24T01:06:14;100290.09;;;18.99;83.12
80699;BME280;70062;51.658;5.658;2023-07-24T01:08:39;100289.89;;;18.94;83.09
80699;BME280;70062;51.658;5.658;2023-07-24T01:11:27;100286.56;;;18.90;83.14
80699;BME280;70062;51.658;5.658;2023-07-24T01:14:07;100292.29;;;18.87;83.24
80699;BME280;70062;51.658;5.658;2023-07-24T01:16:41;100285.64;;;18.82;83.32
80699;BME280;70062;51.658;5.658;2023-07-24T01:22:01;100277.09;;;18.76;83.33
80699;BME280;70062;51.658;5.658;2023-07-24T01:27:24;100273.39;;;18.68;83.48
80699;BME280;70062;51.658;5.658;2023-07-24T01:29:50;100269.02;;;18.66;83.63
80699;BME280;70062;51.658;5.658;2023-07-24T01:32:15;100263.27;;;18.65;83.56
80699;BME280;70062;51.658;5.658;2023-07-24T01:34:41;100263.96;;;18.63;83.64
80699;BME280;70062;51.658;5.658;2023-07-24T01:37:06;100258.01;;;18.60;83.69
80699;BME280;70062;51.658;5.658;2023-07-24T01:39:33;100254.83;;;18.55;83.91
80699;BME280;70062;51.658;5.658;2023-07-24T01:41:58;100246.80;;;18.52;83.93
80699;BME280;70062;51.658;5.658;2023-07-24T01:44:24;100252.54;;;18.51;84.08
80699;BME280;70062;51.658;5.658;2023-07-24T01:46:49;100245.77;;;18.51;84.06
80699;BME280;70062;51.658;5.658;2023-07-24T01:49:15;100244.87;;;18.48;84.15
80699;BME280;70062;51.658;5.658;2023-07-24T01:51:40;100241.75;;;18.48;84.27
80699;BME280;70062;51.658;5.658;2023-07-24T01:54:05;100244.02;;;18.50;84.39
80699;BME280;70062;51.658;5.658;2023-07-24T01:56:31;100244.73;;;18.51;84.48
80699;BME280;70062;51.658;5.658;2023-07-24T01:58:56;100239.33;;;18.50;84.53
80699;BME280;70062;51.658;5.658;2023-07-24T02:01:21;100233.08;;;18.51;84.65
80699;BME280;70062;51.658;5.658;2023-07-24T02:03:47;100228.02;;;18.49;84.76
80699;BME280;70062;51.658;5.658;2023-07-24T02:06:12;100227.33;;;18.49;84.86
80699;BME280;70062;51.658;5.658;2023-07-24T02:08:37;100221.25;;;18.50;84.98
80699;BME280;70062;51.658;5.658;2023-07-24T02:11:03;100217.61;;;18.49;84.97
80699;BME280;70062;51.658;5.658;2023-07-24T02:13:28;100222.65;;;18.51;84.96
80699;BME280;70062;51.658;5.658;2023-07-24T02:15:54;100226.30;;;18.51;84.93
80699;BME280;70062;51.658;5.658;2023-07-24T02:18:19;100219.86;;;18.51;85.10
80699;BME280;70062;51.658;5.658;2023-07-24T02:20:51;100212.05;;;18.52;85.23
80699;BME280;70062;51.658;5.658;2023-07-24T02:23:19;100206.66;;;18.51;85.24
80699;BME280;70062;51.658;5.658;2023-07-24T02:25:45;100211.34;;;18.49;85.16
80699;BME280;70062;51.658;5.658;2023-07-24T02:28:10;100205.07;;;18.48;85.37
80699;BME280;70062;51.658;5.658;2023-07-24T02:30:39;100207.52;;;18.48;85.35
80699;BME280;70062;51.658;5.658;2023-07-24T02:33:04;100204.02;;;18.48;85.21
80699;BME280;70062;51.658;5.658;2023-07-24T02:35:30;100205.76;;;18.47;85.25
80699;BME280;70062;51.658;5.658;2023-07-24T02:37:55;100203.67;;;18.46;85.39
80699;BME280;70062;51.658;5.658;2023-07-24T02:40:20;100198.99;;;18.47;85.41
80699;BME280;70062;51.658;5.658;2023-07-24T02:42:46;100197.43;;;18.49;85.58
80699;BME280;70062;51.658;5.658;2023-07-24T02:45:11;100195.02;;;18.52;85.63
80699;BME280;70062;51.658;5.658;2023-07-24T02:47:37;100200.92;;;18.51;85.40
80699;BME280;70062;51.658;5.658;2023-07-24T02:50:03;100201.27;;;18.50;85.65
80699;BME280;70062;51.658;5.658;2023-07-24T02:52:29;100202.32;;;18.52;85.66
80699;BME280;70062;51.658;5.658;2023-07-24T02:54:54;100203.54;;;18.52;85.76
80699;BME280;70062;51.658;5.658;2023-07-24T02:57:19;100204.76;;;18.53;85.72
80699;BME280;70062;51.658;5.658;2023-07-24T02:59:45;100205.44;;;18.51;85.76
80699;BME280;70062;51.658;5.658;2023-07-24T03:02:10;100209.42;;;18.49;85.81
80699;BME280;70062;51.658;5.658;2023-07-24T03:04:36;100205.95;;;18.49;85.73
80699;BME280;70062;51.658;5.658;2023-07-24T03:07:01;100200.02;;;18.47;85.85
80699;BME280;70062;51.658;5.658;2023-07-24T03:09:26;100184.20;;;18.46;86.00
80699;BME280;70062;51.658;5.658;2023-07-24T03:11:52;100190.97;;;18.44;85.80
80699;BME280;70062;51.658;5.658;2023-07-24T03:14:17;100202.23;;;18.41;85.63
80699;BME280;70062;51.658;5.658;2023-07-24T03:16:42;100211.08;;;18.37;85.69
80699;BME280;70062;51.658;5.658;2023-07-24T03:19:08;100207.40;;;18.33;85.68
80699;BME280;70062;51.658;5.658;2023-07-24T03:21:33;100201.82;;;18.29;85.76
80699;BME280;70062;51.658;5.658;2023-07-24T03:23:58;100196.92;;;18.25;85.76
80699;BME280;70062;51.658;5.658;2023-07-24T03:26:24;100182.66;;;18.22;85.72
80699;BME280;70062;51.658;5.658;2023-07-24T03:28:49;100177.77;;;18.19;85.47
80699;BME280;70062;51.658;5.658;2023-07-24T03:31:15;100167.66;;;18.14;85.51
80699;BME280;70062;51.658;5.658;2023-07-24T03:33:40;100170.94;;;18.12;85.60
80699;BME280;70062;51.658;5.658;2023-07-24T03:36:08;100175.09;;;18.10;85.72
80699;BME280;70062;51.658;5.658;2023-07-24T03:38:34;100191.55;;;18.04;85.45
80699;BME280;70062;51.658;5.658;2023-07-24T03:40:59;100191.44;;;17.91;84.69
80699;BME280;70062;51.658;5.658;2023-07-24T03:43:25;100197.56;;;17.77;84.13
80699;BME280;70062;51.658;5.658;2023-07-24T03:45:50;100180.88;;;17.60;84.05
80699;BME280;70062;51.658;5.658;2023-07-24T03:48:16;100183.34;;;17.46;84.25
80699;BME280;70062;51.658;5.658;2023-07-24T03:50:41;100176.09;;;17.34;84.34
80699;BME280;70062;51.658;5.658;2023-07-24T03:53:06;100177.71;;;17.26;84.54
80699;BME280;70062;51.658;5.658;2023-07-24T03:55:32;100181.30;;;17.21;84.82
80699;BME280;70062;51.658;5.658;2023-07-24T03:57:57;100181.98;;;17.19;85.16
80699;BME280;70062;51.658;5.658;2023-07-24T04:00:23;100176.05;;;17.18;85.16
80699;BME280;70062;51.658;5.658;2023-07-24T04:02:48;100171.20;;;17.17;85.27
80699;BME280;70062;51.658;5.658;2023-07-24T04:05:14;100176.91;;;17.17;85.58
80699;BME280;70062;51.658;5.658;2023-07-24T04:07:39;100178.15;;;17.19;85.77
80699;BME280;70062;51.658;5.658;2023-07-24T04:10:05;100183.38;;;17.21;85.81
80699;BME280;70062;51.658;5.658;2023-07-24T04:12:31;100187.04;;;17.23;86.01
80699;BME280;70062;51.658;5.658;2023-07-24T04:14:56;100184.11;;;17.25;85.99
80699;BME280;70062;51.658;5.658;2023-07-24T04:17:22;100178.77;;;17.27;86.12
80699;BME280;70062;51.658;5.658;2023-07-24T04:19:47;100180.88;;;17.29;86.09
80699;BME280;70062;51.658;5.658;2023-07-24T04:22:13;100181.25;;;17.32;86.28
80699;BME280;70062;51.658;5.658;2023-07-24T04:24:38;100181.98;;;17.34;86.09
80699;BME280;70062;51.658;5.658;2023-07-24T04:27:04;100185.48;;;17.35;85.90
80699;BME280;70062;51.658;5.658;2023-07-24T04:29:29;100195.50;;;17.34;85.89
80699;BME280;70062;51.658;5.658;2023-07-24T04:31:54;100195.84;;;17.33;86.05
80699;BME280;70062;51.658;5.658;2023-07-24T04:34:20;100194.14;;;17.34;86.13
80699;BME280;70062;51.658;5.658;2023-07-24T04:36:45;100195.40;;;17.38;86.19
80699;BME280;70062;51.658;5.658;2023-07-24T04:39:10;100190.19;;;17.37;85.92
80699;BME280;70062;51.658;5.658;2023-07-24T04:41:36;100191.92;;;17.38;85.99
80699;BME280;70062;51.658;5.658;2023-07-24T04:44:01;100198.73;;;17.40;86.24
80699;BME280;70062;51.658;5.658;2023-07-24T04:46:27;100197.70;;;17.42;86.17
80699;BME280;70062;51.658;5.658;2023-07-24T04:48:52;100197.86;;;17.41;85.97
80699;BME280;70062;51.658;5.658;2023-07-24T04:51:17;100197.69;;;17.41;86.18
80699;BME280;70062;51.658;5.658;2023-07-24T04:53:44;100198.90;;;17.41;86.27
80699;BME280;70062;51.658;5.658;2023-07-24T04:56:09;100200.42;;;17.39;85.98
80699;BME280;70062;51.658;5.658;2023-07-24T04:58:35;100201.27;;;17.36;86.08
80699;BME280;70062;51.658;5.658;2023-07-24T05:01:04;100199.68;;;17.34;86.15
80699;BME280;70062;51.658;5.658;2023-07-24T05:03:30;100193.07;;;17.33;86.00
80699;BME280;70062;51.658;5.658;2023-07-24T05:05:56;100192.88;;;17.32;86.09
80699;BME280;70062;51.658;5.658;2023-07-24T05:08:21;100189.60;;;17.33;86.13
80699;BME280;70062;51.658;5.658;2023-07-24T05:10:47;100190.67;;;17.34;86.19
80699;BME280;70062;51.658;5.658;2023-07-24T05:13:12;100189.48;;;17.36;86.24
80699;BME280;70062;51.658;5.658;2023-07-24T05:15:38;100197.14;;;17.39;86.14
80699;BME280;70062;51.658;5.658;2023-07-24T05:18:03;100197.18;;;17.43;86.22
80699;BME280;70062;51.658;5.658;2023-07-24T05:20:28;100197.06;;;17.47;86.17
80699;BME280;70062;51.658;5.658;2023-07-24T05:22:54;100207.35;;;17.52;85.95
80699;BME280;70062;51.658;5.658;2023-07-24T05:25:19;100208.60;;;17.56;85.72
80699;BME280;70062;51.658;5.658;2023-07-24T05:27:44;100214.36;;;17.59;85.70
80699;BME280;70062;51.658;5.658;2023-07-24T05:30:10;100214.05;;;17.63;85.39
80699;BME280;70062;51.658;5.658;2023-07-24T05:32:36;100210.98;;;17.66;85.24
80699;BME280;70062;51.658;5.658;2023-07-24T05:35:02;100215.19;;;17.69;85.04
80699;BME280;70062;51.658;5.658;2023-07-24T05:37:27;100216.59;;;17.70;84.84
80699;BME280;70062;51.658;5.658;2023-07-24T05:39:52;100214.17;;;17.72;84.78
80699;BME280;70062;51.658;5.658;2023-07-24T05:42:18;100217.86;;;17.75;84.95
80699;BME280;70062;51.658;5.658;2023-07-24T05:44:43;100220.33;;;17.79;84.84
80699;BME280;70062;51.658;5.658;2023-07-24T05:47:08;100221.03;;;17.81;84.49
80699;BME280;70062;51.658;5.658;2023-07-24T05:49:36;100220.55;;;17.85;84.61
80699;BME280;70062;51.658;5.658;2023-07-24T05:52:01;100215.90;;;17.88;84.20
80699;BME280;70062;51.658;5.658;2023-07-24T05:54:27;100219.23;;;17.91;83.88
80699;BME280;70062;51.658;5.658;2023-07-24T05:56:55;100220.80;;;17.93;83.91
80699;BME280;70062;51.658;5.658;2023-07-24T05:59:20;100221.35;;;17.96;83.78
80699;BME280;70062;51.658;5.658;2023-07-24T06:01:46;100221.39;;;18.00;83.94
80699;BME280;70062;51.658;5.658;2023-07-24T06:04:11;100226.49;;;18.08;84.12
80699;BME280;70062;51.658;5.658;2023-07-24T06:06:36;100226.56;;;18.17;83.77
80699;BME280;70062;51.658;5.658;2023-07-24T06:09:02;100221.58;;;18.22;83.40
80699;BME280;70062;51.658;5.658;2023-07-24T06:11:28;100225.60;;;18.26;83.17
80699;BME280;70062;51.658;5.658;2023-07-24T06:13:53;100227.16;;;18.26;82.96
80699;BME280;70062;51.658;5.658;2023-07-24T06:16:19;100226.86;;;18.33;82.87
80699;BME280;70062;51.658;5.658;2023-07-24T06:18:44;100228.81;;;18.38;82.45
80699;BME280;70062;51.658;5.658;2023-07-24T06:21:09;100230.42;;;18.44;82.34
80699;BME280;70062;51.658;5.658;2023-07-24T06:23:35;100224.54;;;18.48;82.18
80699;BME280;70062;51.658;5.658;2023-07-24T06:26:00;100216.08;;;18.55;82.50
80699;BME280;70062;51.658;5.658;2023-07-24T06:28:27;100219.09;;;18.62;82.37
80699;BME280;70062;51.658;5.658;2023-07-24T06:30:54;100220.70;;;18.68;82.14
80699;BME280;70062;51.658;5.658;2023-07-24T06:33:19;100225.11;;;18.78;81.98
80699;BME280;70062;51.658;5.658;2023-07-24T06:35:48;100222.91;;;18.92;81.78
80699;BME280;70062;51.658;5.658;2023-07-24T06:38:13;100229.42;;;19.05;81.39
80699;BME280;70062;51.658;5.658;2023-07-24T06:40:38;100230.19;;;19.15;81.17
80699;BME280;70062;51.658;5.658;2023-07-24T06:43:04;100227.95;;;19.22;81.27
80699;BME280;70062;51.658;5.658;2023-07-24T06:45:29;100227.11;;;19.30;80.66
80699;BME280;70062;51.658;5.658;2023-07-24T06:47:55;100224.71;;;19.39;80.50
80699;BME280;70062;51.658;5.658;2023-07-24T06:50:20;100227.76;;;19.60;80.17
80699;BME280;70062;51.658;5.658;2023-07-24T06:52:45;100232.34;;;19.83;80.01
80699;BME280;70062;51.658;5.658;2023-07-24T06:55:11;100233.23;;;20.04;79.72
80699;BME280;70062;51.658;5.658;2023-07-24T06:57:36;100232.00;;;20.32;78.42
80699;BME280;70062;51.658;5.658;2023-07-24T07:00:02;100231.68;;;20.40;77.67
80699;BME280;70062;51.658;5.658;2023-07-24T07:02:27;100226.44;;;20.49;76.77
80699;BME280;70062;51.658;5.658;2023-07-24T07:04:53;100228.70;;;20.54;76.13
80699;BME280;70062;51.658;5.658;2023-07-24T07:07:19;100230.45;;;20.46;75.75
80699;BME280;70062;51.658;5.658;2023-07-24T07:09:44;100231.14;;;20.39;75.77
80699;BME280;70062;51.658;5.658;2023-07-24T07:12:09;100229.91;;;20.34;76.11
80699;BME280;70062;51.658;5.658;2023-07-24T07:14:35;100227.31;;;20.42;76.42
80699;BME280;70062;51.658;5.658;2023-07-24T07:17:00;100230.79;;;20.54;75.44
80699;BME280;70062;51.658;5.658;2023-07-24T07:19:27;100233.06;;;20.51;74.80
80699;BME280;70062;51.658;5.658;2023-07-24T07:21:52;100236.38;;;20.41;75.70
80699;BME280;70062;51.658;5.658;2023-07-24T07:24:17;100235.31;;;20.33;76.03
80699;BME280;70062;51.658;5.658;2023-07-24T07:26:43;100234.96;;;20.24;75.74
80699;BME280;70062;51.658;5.658;2023-07-24T07:29:10;100234.27;;;20.12;75.95
80699;BME280;70062;51.658;5.658;2023-07-24T07:31:35;100233.39;;;20.14;76.58
80699;BME280;70062;51.658;5.658;2023-07-24T07:34:00;100234.10;;;20.12;75.87
80699;BME280;70062;51.658;5.658;2023-07-24T07:36:26;100236.89;;;20.07;75.91
80699;BME280;70062;51.658;5.658;2023-07-24T07:38:51;100235.48;;;20.03;76.00
80699;BME280;70062;51.658;5.658;2023-07-24T07:41:16;100227.47;;;19.99;76.43
80699;BME280;70062;51.658;5.658;2023-07-24T07:43:42;100228.34;;;19.98;76.93
80699;BME280;70062;51.658;5.658;2023-07-24T07:46:07;100223.46;;;19.94;76.90
80699;BME280;70062;51.658;5.658;2023-07-24T07:48:33;100223.64;;;19.91;77.25
80699;BME280;70062;51.658;5.658;2023-07-24T07:50:58;100218.92;;;19.85;77.46
80699;BME280;70062;51.658;5.658;2023-07-24T07:53:23;100221.70;;;19.86;77.57
80699;BME280;70062;51.658;5.658;2023-07-24T07:55:58;100224.16;;;19.98;77.99
80699;BME280;70062;51.658;5.658;2023-07-24T07:58:25;100229.92;;;20.02;76.69
80699;BME280;70062;51.658;5.658;2023-07-24T08:00:50;100231.83;;;19.97;77.18
80699;BME280;70062;51.658;5.658;2023-07-24T08:03:16;100229.39;;;20.00;76.94
80699;BME280;70062;51.658;5.658;2023-07-24T08:05:41;100227.99;;;20.07;77.26
80699;BME280;70062;51.658;5.658;2023-07-24T08:08:07;100229.05;;;20.21;76.90
80699;BME280;70062;51.658;5.658;2023-07-24T08:10:32;100228.00;;;20.33;75.98
80699;BME280;70062;51.658;5.658;2023-07-24T08:12:57;100221.90;;;20.50;75.91
80699;BME280;70062;51.658;5.658;2023-07-24T08:15:23;100219.61;;;20.66;74.93
80699;BME280;70062;51.658;5.658;2023-07-24T08:17:48;100220.98;;;20.82;74.41
80699;BME280;70062;51.658;5.658;2023-07-24T08:20:13;100223.75;;;20.97;74.43
80699;BME280;70062;51.658;5.658;2023-07-24T08:22:39;100224.41;;;21.07;73.13
80699;BME280;70062;51.658;5.658;2023-07-24T08:25:04;100230.65;;;21.16;73.47
80699;BME280;70062;51.658;5.658;2023-07-24T08:27:30;100233.27;;;21.25;72.45
80699;BME280;70062;51.658;5.658;2023-07-24T08:29:55;100235.86;;;21.31;71.46
80699;BME280;70062;51.658;5.658;2023-07-24T08:32:21;100238.46;;;21.34;71.56
80699;BME280;70062;51.658;5.658;2023-07-24T08:34:46;100239.69;;;21.34;71.43
80699;BME280;70062;51.658;5.658;2023-07-24T08:37:11;100235.17;;;21.28;71.06
80699;BME280;70062;51.658;5.658;2023-07-24T08:39:37;100233.77;;;21.30;70.76
80699;BME280;70062;51.658;5.658;2023-07-24T08:42:11;100228.09;;;21.47;70.38
80699;BME280;70062;51.658;5.658;2023-07-24T08:44:37;100231.36;;;21.83;69.86
80699;BME280;70062;51.658;5.658;2023-07-24T08:47:03;100224.08;;;22.25;68.92
80699;BME280;70062;51.658;5.658;2023-07-24T08:49:30;100218.90;;;22.57;67.36
80699;BME280;70062;51.658;5.658;2023-07-24T08:51:57;100221.41;;;22.87;66.89
80699;BME280;70062;51.658;5.658;2023-07-24T08:54:24;100214.89;;;23.20;66.47
80699;BME280;70062;51.658;5.658;2023-07-24T08:56:52;100208.61;;;23.45;65.00
80699;BME280;70062;51.658;5.658;2023-07-24T08:59:17;100205.30;;;23.59;63.22
80699;BME280;70062;51.658;5.658;2023-07-24T09:01:43;100205.70;;;23.67;63.27
80699;BME280;70062;51.658;5.658;2023-07-24T09:04:08;100205.09;;;23.60;63.27
80699;BME280;70062;51.658;5.658;2023-07-24T09:06:34;100206.13;;;23.34;62.86
80699;BME280;70062;51.658;5.658;2023-07-24T09:09:00;100207.52;;;23.08;63.39
80699;BME280;70062;51.658;5.658;2023-07-24T09:11:25;100204.95;;;22.72;63.55
80699;BME280;70062;51.658;5.658;2023-07-24T09:13:51;100202.25;;;22.41;63.59
80699;BME280;70062;51.658;5.658;2023-07-24T09:16:24;100208.09;;;22.14;63.49
80699;BME280;70062;51.658;5.658;2023-07-24T09:18:50;100207.15;;;21.98;63.91
80699;BME280;70062;51.658;5.658;2023-07-24T09:21:27;100207.14;;;21.99;63.87
80699;BME280;70062;51.658;5.658;2023-07-24T09:23:53;100195.73;;;22.08;64.74
80699;BME280;70062;51.658;5.658;2023-07-24T09:26:19;100186.63;;;22.29;64.17
80699;BME280;70062;51.658;5.658;2023-07-24T09:28:52;100177.54;;;22.47;64.07
80699;BME280;70062;51.658;5.658;2023-07-24T09:31:17;100172.20;;;22.57;63.33
80699;BME280;70062;51.658;5.658;2023-07-24T09:33:43;100170.94;;;22.62;63.29
80699;BME280;70062;51.658;5.658;2023-07-24T09:36:12;100169.56;;;22.76;63.10
80699;BME280;70062;51.658;5.658;2023-07-24T09:38:38;100168.92;;;23.01;62.97
80699;BME280;70062;51.658;5.658;2023-07-24T09:41:04;100168.84;;;23.34;61.99
80699;BME280;70062;51.658;5.658;2023-07-24T09:43:31;100164.50;;;23.57;60.47
80699;BME280;70062;51.658;5.658;2023-07-24T09:45:57;100154.86;;;23.68;59.51
80699;BME280;70062;51.658;5.658;2023-07-24T09:48:24;100149.55;;;23.72;59.56
80699;BME280;70062;51.658;5.658;2023-07-24T09:50:55;100150.41;;;23.73;59.33
80699;BME280;70062;51.658;5.658;2023-07-24T09:53:38;100152.47;;;23.76;60.10
80699;BME280;70062;51.658;5.658;2023-07-24T09:56:06;100150.70;;;23.77;59.64
80699;BME280;70062;51.658;5.658;2023-07-24T09:58:39;100139.02;;;23.73;59.58
80699;BME280;70062;51.658;5.658;2023-07-24T10:01:07;100127.95;;;23.63;58.27
80699;BME280;70062;51.658;5.658;2023-07-24T10:03:38;100126.34;;;23.53;59.38
80699;BME280;70062;51.658;5.658;2023-07-24T10:06:04;100127.63;;;23.49;59.61
80699;BME280;70062;51.658;5.658;2023-07-24T10:08:30;100130.83;;;23.46;59.67
80699;BME280;70062;51.658;5.658;2023-07-24T10:11:00;100132.79;;;23.44;60.17
80699;BME280;70062;51.658;5.658;2023-07-24T10:13:26;100129.16;;;23.40;59.93
80699;BME280;70062;51.658;5.658;2023-07-24T10:15:53;100125.55;;;23.36;60.38
80699;BME280;70062;51.658;5.658;2023-07-24T10:18:26;100126.23;;;23.37;60.34
80699;BME280;70062;51.658;5.658;2023-07-24T10:21:07;100123.10;;;23.35;59.95
80699;BME280;70062;51.658;5.658;2023-07-24T10:23:37;100130.81;;;23.35;60.42
80699;BME280;70062;51.658;5.658;2023-07-24T10:26:04;100148.02;;;23.32;59.39
80699;BME280;70062;51.658;5.658;2023-07-24T10:28:34;100156.08;;;23.19;59.35
80699;BME280;70062;51.658;5.658;2023-07-24T10:31:01;100155.42;;;23.03;59.84
80699;BME280;70062;51.658;5.658;2023-07-24T10:33:30;100157.00;;;22.89;59.64
80699;BME280;70062;51.658;5.658;2023-07-24T10:36:07;100177.64;;;22.72;60.37
80699;BME280;70062;51.658;5.658;2023-07-24T10:38:40;100178.52;;;22.55;60.87
80699;BME280;70062;51.658;5.658;2023-07-24T10:41:08;100170.73;;;22.46;61.15
80699;BME280;70062;51.658;5.658;2023-07-24T10:43:45;100163.80;;;22.38;61.38
80699;BME280;70062;51.658;5.658;2023-07-24T10:46:11;100165.72;;;22.22;61.61
80699;BME280;70062;51.658;5.658;2023-07-24T10:48:37;100162.17;;;22.07;62.84
80699;BME280;70062;51.658;5.658;2023-07-24T10:51:10;100162.02;;;22.01;62.73
80699;BME280;70062;51.658;5.658;2023-07-24T10:53:36;100160.92;;;22.11;62.49
80699;BME280;70062;51.658;5.658;2023-07-24T10:56:03;100169.80;;;22.34;62.56
80699;BME280;70062;51.658;5.658;2023-07-24T10:58:29;100181.27;;;22.59;62.30
80699;BME280;70062;51.658;5.658;2023-07-24T11:00:55;100185.09;;;22.96;62.31
80699;BME280;70062;51.658;5.658;2023-07-24T11:03:21;100185.48;;;23.33;61.34
80699;BME280;70062;51.658;5.658;2023-07-24T11:05:47;100186.71;;;23.59;60.77
80699;BME280;70062;51.658;5.658;2023-07-24T11:10:52;100179.77;;;23.89;59.45
80699;BME280;70062;51.658;5.658;2023-07-24T11:13:23;100178.83;;;24.26;58.98
80699;BME280;70062;51.658;5.658;2023-07-24T11:15:49;100172.35;;;24.46;58.02
80699;BME280;70062;51.658;5.658;2023-07-24T11:18:15;100166.35;;;24.48;57.21
80699;BME280;70062;51.658;5.658;2023-07-24T11:20:45;100169.63;;;24.50;57.29
80699;BME280;70062;51.658;5.658;2023-07-24T11:23:12;100164.95;;;24.48;56.88
80699;BME280;70062;51.658;5.658;2023-07-24T11:25:38;100159.50;;;24.48;57.21
80699;BME280;70062;51.658;5.658;2023-07-24T11:28:07;100152.55;;;24.45;56.89
80699;BME280;70062;51.658;5.658;2023-07-24T11:30:34;100150.73;;;24.48;57.00
80699;BME280;70062;51.658;5.658;2023-07-24T11:33:02;100154.66;;;24.62;56.63
80699;BME280;70062;51.658;5.658;2023-07-24T11:35:28;100163.70;;;24.84;56.26
80699;BME280;70062;51.658;5.658;2023-07-24T11:37:54;100162.52;;;25.00;55.76
80699;BME280;70062;51.658;5.658;2023-07-24T11:40:19;100162.04;;;25.15;54.72
80699;BME280;70062;51.658;5.658;2023-07-24T11:42:47;100164.02;;;25.28;54.97
80699;BME280;70062;51.658;5.658;2023-07-24T11:45:12;100170.11;;;25.39;54.79
80699;BME280;70062;51.658;5.658;2023-07-24T11:47:56;100162.37;;;25.47;54.63
80699;BME280;70062;51.658;5.658;2023-07-24T11:50:22;100160.68;;;25.59;54.23
80699;BME280;70062;51.658;5.658;2023-07-24T11:52:50;100165.85;;;25.56;53.45
80699;BME280;70062;51.658;5.658;2023-07-24T11:55:30;100166.86;;;25.51;53.40
80699;BME280;70062;51.658;5.658;2023-07-24T11:58:00;100168.16;;;25.47;53.63
80699;BME280;70062;51.658;5.658;2023-07-24T12:00:26;100168.45;;;25.57;53.75
80699;BME280;70062;51.658;5.658;2023-07-24T12:02:53;100162.95;;;25.76;53.80
80699;BME280;70062;51.658;5.658;2023-07-24T12:05:18;100147.58;;;26.01;53.01
80699;BME280;70062;51.658;5.658;2023-07-24T12:07:44;100147.70;;;26.23;52.20
80699;BME280;70062;51.658;5.658;2023-07-24T12:10:24;100142.48;;;26.61;50.93
80699;BME280;70062;51.658;5.658;2023-07-24T12:12:51;100139.30;;;27.05;50.14
80699;BME280;70062;51.658;5.658;2023-07-24T12:15:16;100135.52;;;27.64;49.24
80699;BME280;70062;51.658;5.658;2023-07-24T12:17:42;100135.23;;;28.31;47.89
80699;BME280;70062;51.658;5.658;2023-07-24T12:20:08;100138.19;;;28.91;46.83
80699;BME280;70062;51.658;5.658;2023-07-24T12:22:38;100139.17;;;29.49;45.91
80699;BME280;70062;51.658;5.658;2023-07-24T12:25:04;100132.58;;;29.76;45.33
80699;BME280;70062;51.658;5.658;2023-07-24T12:27:30;100126.11;;;29.87;43.45
80699;BME280;70062;51.658;5.658;2023-07-24T12:29:56;100126.56;;;29.81;42.96
80699;BME280;70062;51.658;5.658;2023-07-24T12:32:22;100122.58;;;29.70;43.52
80699;BME280;70062;51.658;5.658;2023-07-24T12:34:49;100128.90;;;29.71;43.34
80699;BME280;70062;51.658;5.658;2023-07-24T12:37:15;100130.08;;;29.73;42.36
80699;BME280;70062;51.658;5.658;2023-07-24T12:39:40;100136.64;;;29.67;42.17
80699;BME280;70062;51.658;5.658;2023-07-24T12:42:05;100130.70;;;29.66;42.89
80699;BME280;70062;51.658;5.658;2023-07-24T12:44:32;100124.41;;;29.81;42.44
80699;BME280;70062;51.658;5.658;2023-07-24T12:46:57;100119.20;;;30.17;42.87
80699;BME280;70062;51.658;5.658;2023-07-24T12:49:22;100124.88;;;30.37;42.37
80699;BME280;70062;51.658;5.658;2023-07-24T12:51:48;100128.35;;;30.05;41.78
80699;BME280;70062;51.658;5.658;2023-07-24T12:54:13;100124.63;;;29.58;42.35